createdAt,value
2019-04-01T00:00:00.725Z,101988.73
2019-04-01T00:01:19.650Z,101985.86
2019-04-01T00:02:25.500Z,101982.75
2019-04-01T00:03:30.878Z,101979.02
2019-04-01T00:04:35.884Z,101978.85
2019-04-01T00:05:40.908Z,101980.06
2019-04-01T00:06:45.788Z,101975.55
2019-04-01T00:07:51.244Z,101982.09
2019-04-01T00:08:56.326Z,101976.63
2019-04-01T00:10:01.050Z,101975.80
2019-04-01T00:11:06.306Z,101968.96
2019-04-01T00:12:10.970Z,101972.05
2019-04-01T00:13:16.372Z,101970.72
2019-04-01T00:14:21.793Z,101968.59
2019-04-01T00:15:26.779Z,101967.84
2019-04-01T00:16:31.466Z,101968.92
2019-04-01T00:17:36.400Z,101963.75
2019-04-01T00:18:41.568Z,101964.12
2019-04-01T00:19:45.989Z,101966.67
2019-04-01T00:20:50.990Z,101966.63
2019-04-01T00:21:55.825Z,101963.06
2019-04-01T00:23:00.970Z,101964.63
2019-04-01T00:24:05.888Z,101965.91
2019-04-01T00:25:10.565Z,101967.77
2019-04-01T00:26:15.455Z,101972.70
2019-04-01T00:27:20.144Z,101963.74
2019-04-01T00:28:25.184Z,101964.34
2019-04-01T00:29:30.553Z,101963.05
2019-04-01T00:30:35.884Z,101968.75
2019-04-01T00:31:40.830Z,101965.00
2019-04-01T00:32:45.440Z,101961.91
2019-04-01T00:33:50.472Z,101964.41
2019-04-01T00:34:55.640Z,101966.84
2019-04-01T00:36:00.512Z,101959.30
2019-04-01T00:37:05.203Z,101958.77
2019-04-01T00:38:10.490Z,101967.54
2019-04-01T00:39:15.137Z,101965.23
2019-04-01T00:40:20.062Z,101970.06
2019-04-01T00:41:25.321Z,101971.17
2019-04-01T00:42:34.311Z,101968.37
2019-04-01T00:43:52.902Z,101972.66
2019-04-01T00:44:58.157Z,101963.38
2019-04-01T00:46:03.456Z,101969.92
2019-04-01T00:47:08.735Z,101967.80
2019-04-01T00:48:14.100Z,101968.73
2019-04-01T00:49:19.448Z,101965.66
2019-04-01T00:50:24.139Z,101976.06
2019-04-01T00:51:28.787Z,101970.94
2019-04-01T00:52:34.041Z,101964.91
2019-04-01T00:53:39.093Z,101962.89
2019-04-01T00:54:44.342Z,101964.44
2019-04-01T00:55:49.583Z,101966.20
2019-04-01T00:56:54.855Z,101972.30
2019-04-01T00:58:00.064Z,101971.05
2019-04-01T00:59:05.380Z,101966.84
2019-04-01T01:00:10.231Z,101973.05
2019-04-01T01:01:15.233Z,101971.00
2019-04-01T01:02:20.389Z,101968.39
2019-04-01T01:03:25.060Z,101969.69
2019-04-01T01:04:29.663Z,101968.83
2019-04-01T01:05:35.273Z,101964.35
2019-04-01T01:06:40.598Z,101963.11
2019-04-01T01:07:45.087Z,101968.52
2019-04-01T01:08:49.972Z,101969.71
2019-04-01T01:09:55.484Z,101968.78
2019-04-01T01:11:00.791Z,101968.84
2019-04-01T01:12:05.823Z,101966.30
2019-04-01T01:13:10.995Z,101973.73
2019-04-01T01:14:16.199Z,101971.18
2019-04-01T01:15:20.611Z,101966.09
2019-04-01T01:16:25.310Z,101968.88
2019-04-01T01:17:30.366Z,101968.86
2019-04-01T01:18:38.427Z,101964.86
2019-04-01T01:19:43.419Z,101965.23
2019-04-01T01:20:48.239Z,101964.27
2019-04-01T01:21:53.177Z,101964.91
2019-04-01T01:22:58.164Z,101967.55
2019-04-01T01:24:02.880Z,101960.05
2019-04-01T01:25:07.956Z,101962.23
2019-04-01T01:26:13.470Z,101958.96
2019-04-01T01:27:18.177Z,101963.50
2019-04-01T01:28:23.419Z,101964.38
2019-04-01T01:29:28.695Z,101965.17
2019-04-01T01:30:33.232Z,101963.00
2019-04-01T01:31:39.884Z,101961.08
2019-04-01T01:32:45.151Z,101963.79
2019-04-01T01:33:50.581Z,101964.93
2019-04-01T01:34:55.515Z,101964.47
2019-04-01T01:36:00.733Z,101962.30
2019-04-01T01:37:05.988Z,101960.28
2019-04-01T01:38:10.973Z,101962.87
2019-04-01T01:39:15.859Z,101964.50
2019-04-01T01:40:20.834Z,101960.45
2019-04-01T01:41:26.095Z,101955.75
2019-04-01T01:42:31.268Z,101960.03
2019-04-01T01:43:36.262Z,101960.54
2019-04-01T01:44:41.428Z,101961.92
2019-04-01T01:45:46.493Z,101956.94
2019-04-01T01:46:51.832Z,101957.22
2019-04-01T01:47:56.770Z,101952.46
2019-04-01T01:49:01.537Z,101953.95
2019-04-01T01:50:06.685Z,101946.14
2019-04-01T01:51:11.646Z,101950.55
2019-04-01T01:52:16.571Z,101944.88
2019-04-01T01:53:21.884Z,101947.02
2019-04-01T01:54:27.350Z,101948.61
2019-04-01T01:55:32.802Z,101947.06
2019-04-01T01:56:37.665Z,101949.55
2019-04-01T01:57:42.906Z,101945.41
2019-04-01T01:58:48.499Z,101949.71
2019-04-01T01:59:54.152Z,101945.11
2019-04-01T02:00:58.858Z,101943.10
2019-04-01T02:02:04.155Z,101943.23
2019-04-01T02:03:08.582Z,101946.35
2019-04-01T02:04:13.257Z,101943.05
2019-04-01T02:05:18.558Z,101938.77
2019-04-01T02:06:23.539Z,101945.05
2019-04-01T02:07:28.803Z,101945.82
2019-04-01T02:08:34.298Z,101947.59
2019-04-01T02:09:39.228Z,101950.68
2019-04-01T02:10:43.920Z,101949.23
2019-04-01T02:11:48.714Z,101950.61
2019-04-01T02:12:53.930Z,101953.51
2019-04-01T02:13:59.082Z,101946.63
2019-04-01T02:15:03.922Z,101944.30
2019-04-01T02:16:08.875Z,101944.70
2019-04-01T02:17:13.415Z,101947.78
2019-04-01T02:18:18.437Z,101944.56
2019-04-01T02:19:24.010Z,101941.29
2019-04-01T02:20:29.516Z,101941.91
2019-04-01T02:21:34.691Z,101946.46
2019-04-01T02:22:40.069Z,101943.20
2019-04-01T02:23:45.039Z,101939.63
2019-04-01T02:24:49.926Z,101934.28
2019-04-01T02:25:55.533Z,101940.77
2019-04-01T02:27:00.617Z,101938.18
2019-04-01T02:28:05.314Z,101939.73
2019-04-01T02:29:10.549Z,101940.62
2019-04-01T02:30:15.700Z,101936.25
2019-04-01T02:31:20.667Z,101939.88
2019-04-01T02:32:25.646Z,101933.77
2019-04-01T02:33:30.631Z,101933.70
2019-04-01T02:34:36.138Z,101935.94
2019-04-01T02:35:41.411Z,101930.48
2019-04-01T02:36:46.403Z,101931.84
2019-04-01T02:37:51.403Z,101929.66
2019-04-01T02:38:56.634Z,101928.83
2019-04-01T02:40:02.138Z,101933.50
2019-04-01T02:41:06.834Z,101928.19
2019-04-01T02:42:11.887Z,101927.89
2019-04-01T02:43:17.245Z,101930.54
2019-04-01T02:44:22.512Z,101930.88
2019-04-01T02:45:27.765Z,101927.77
2019-04-01T02:46:33.002Z,101926.95
2019-04-01T02:47:38.009Z,101928.78
2019-04-01T02:48:43.450Z,101929.23
2019-04-01T02:49:48.684Z,101928.30
2019-04-01T02:50:53.631Z,101922.46
2019-04-01T02:51:58.610Z,101925.27
2019-04-01T02:53:03.543Z,101926.98
2019-04-01T02:54:08.551Z,101927.55
2019-04-01T02:55:13.227Z,101925.88
2019-04-01T02:56:18.194Z,101921.81
2019-04-01T02:57:23.422Z,101922.81
2019-04-01T02:58:28.072Z,101925.31
2019-04-01T02:59:33.382Z,101922.52
2019-04-01T03:00:38.641Z,101922.31
2019-04-01T03:01:43.745Z,101919.58
2019-04-01T03:02:48.995Z,101923.73
2019-04-01T03:03:54.496Z,101917.89
2019-04-01T03:04:59.462Z,101917.70
2019-04-01T03:06:04.456Z,101921.75
2019-04-01T03:07:09.696Z,101922.86
2019-04-01T03:08:14.930Z,101925.91
2019-04-01T03:09:19.860Z,101918.36
2019-04-01T03:10:25.097Z,101922.45
2019-04-01T03:11:30.393Z,101922.46
2019-04-01T03:12:34.910Z,101922.11
2019-04-01T03:13:40.242Z,101921.65
2019-04-01T03:14:45.468Z,101914.90
2019-04-01T03:15:50.478Z,101918.71
2019-04-01T03:16:55.476Z,101919.36
2019-04-01T03:18:00.448Z,101920.67
2019-04-01T03:19:05.666Z,101920.83
2019-04-01T03:20:10.452Z,101914.84
2019-04-01T03:21:15.683Z,101925.15
2019-04-01T03:22:20.827Z,101920.38
2019-04-01T03:23:25.495Z,101918.07
2019-04-01T03:24:30.774Z,101919.36
2019-04-01T03:25:36.307Z,101916.64
2019-04-01T03:26:41.345Z,101914.85
2019-04-01T03:27:46.568Z,101915.31
2019-04-01T03:28:51.527Z,101913.09
2019-04-01T03:29:56.440Z,101915.52
2019-04-01T03:31:01.448Z,101920.52
2019-04-01T03:32:06.212Z,101917.93
2019-04-01T03:33:11.486Z,101919.09
2019-04-01T03:34:16.720Z,101921.63
2019-04-01T03:35:21.390Z,101914.56
2019-04-01T03:36:26.175Z,101912.73
2019-04-01T03:37:31.182Z,101919.91
2019-04-01T03:38:36.160Z,101917.41
2019-04-01T03:39:41.200Z,101914.08
2019-04-01T03:40:46.331Z,101914.92
2019-04-01T03:41:51.139Z,101908.77
2019-04-01T03:42:55.875Z,101916.87
2019-04-01T03:44:00.843Z,101917.61
2019-04-01T03:45:05.698Z,101910.62
2019-04-01T03:46:10.915Z,101909.33
2019-04-01T03:47:15.875Z,101903.36
2019-04-01T03:48:21.102Z,101911.23
2019-04-01T03:49:26.401Z,101906.31
2019-04-01T03:50:31.389Z,101907.11
2019-04-01T03:51:36.633Z,101911.27
2019-04-01T03:52:43.080Z,101908.56
2019-04-01T03:53:48.323Z,101910.38
2019-04-01T03:54:53.542Z,101909.29
2019-04-01T03:55:59.069Z,101904.73
2019-04-01T03:57:05.749Z,101906.67
2019-04-01T03:58:10.483Z,101904.66
2019-04-01T03:59:15.734Z,101907.19
2019-04-01T04:00:21.095Z,101908.59
2019-04-01T04:01:30.122Z,101907.42
2019-04-01T04:02:32.119Z,101912.09
2019-04-01T04:03:37.743Z,101907.86
2019-04-01T04:04:43.312Z,101905.25
2019-04-01T04:05:48.964Z,101906.91
2019-04-01T04:06:54.158Z,101913.36
2019-04-01T04:07:59.163Z,101908.98
2019-04-01T04:09:05.887Z,101905.20
2019-04-01T04:10:10.340Z,101903.17
2019-04-01T04:11:15.887Z,101905.33
2019-04-01T04:12:20.283Z,101898.21
2019-04-01T04:13:25.225Z,101903.31
2019-04-01T04:14:30.437Z,101899.94
2019-04-01T04:15:35.201Z,101901.99
2019-04-01T04:16:40.558Z,101899.31
2019-04-01T04:17:45.902Z,101895.82
2019-04-01T04:18:51.399Z,101899.09
2019-04-01T04:19:56.701Z,101902.11
2019-04-01T04:21:01.162Z,101897.97
2019-04-01T04:22:06.129Z,101905.36
2019-04-01T04:23:11.121Z,101900.07
2019-04-01T04:24:15.923Z,101897.91
2019-04-01T04:25:21.310Z,101900.19
2019-04-01T04:26:26.253Z,101897.16
2019-04-01T04:27:31.479Z,101899.85
2019-04-01T04:28:36.740Z,101897.31
2019-04-01T04:29:42.332Z,101892.75
2019-04-01T04:30:47.292Z,101896.61
2019-04-01T04:31:51.989Z,101899.66
2019-04-01T04:32:57.529Z,101901.86
2019-04-01T04:34:02.758Z,101898.19
2019-04-01T04:35:07.400Z,101897.55
2019-04-01T04:36:11.848Z,101894.13
2019-04-01T04:37:17.105Z,101896.00
2019-04-01T04:38:21.757Z,101893.16
2019-04-01T04:39:27.059Z,101891.13
2019-04-01T04:40:31.666Z,101891.88
2019-04-01T04:41:38.724Z,101902.05
2019-04-01T04:42:43.797Z,101896.84
2019-04-01T04:43:48.960Z,101897.03
2019-04-01T04:44:54.779Z,101894.22
2019-04-01T04:46:00.375Z,101896.66
2019-04-01T04:47:05.413Z,101893.38
2019-04-01T04:48:11.035Z,101896.38
2019-04-01T04:49:16.572Z,101898.92
2019-04-01T04:50:21.523Z,101899.05
2019-04-01T04:51:26.863Z,101889.59
2019-04-01T04:52:32.178Z,101891.48
2019-04-01T04:53:37.195Z,101888.36
2019-04-01T04:54:42.839Z,101895.17
2019-04-01T04:55:48.070Z,101894.79
2019-04-01T04:56:53.302Z,101890.19
2019-04-01T04:57:58.286Z,101885.94
2019-04-01T04:59:03.798Z,101892.84
2019-04-01T05:00:09.227Z,101888.31
2019-04-01T05:01:13.957Z,101893.26
2019-04-01T05:02:18.930Z,101892.00
2019-04-01T05:03:23.885Z,101891.50
2019-04-01T05:04:28.634Z,101892.99
2019-04-01T05:05:33.995Z,101896.83
2019-04-01T05:06:40.540Z,101891.83
2019-04-01T05:07:45.697Z,101894.89
2019-04-01T05:08:50.924Z,101896.36
2019-04-01T05:09:56.146Z,101890.69
2019-04-01T05:11:01.439Z,101891.64
2019-04-01T05:12:07.014Z,101892.97
2019-04-01T05:13:11.973Z,101896.03
2019-04-01T05:14:16.567Z,101894.78
2019-04-01T05:15:21.789Z,101894.34
2019-04-01T05:16:27.077Z,101890.60
2019-04-01T05:17:32.384Z,101892.38
2019-04-01T05:18:38.309Z,101894.34
2019-04-01T05:19:43.644Z,101897.52
2019-04-01T05:20:49.619Z,101902.56
2019-04-01T05:21:55.188Z,101897.22
2019-04-01T05:23:00.624Z,101892.17
2019-04-01T05:24:05.279Z,101897.40
2019-04-01T05:25:09.984Z,101898.11
2019-04-01T05:26:16.342Z,101898.45
2019-04-01T05:27:24.299Z,101895.77
2019-04-01T05:28:30.985Z,101895.54
2019-04-01T05:29:38.570Z,101899.83
2019-04-01T05:30:46.833Z,101902.66
2019-04-01T05:31:53.092Z,101900.81
2019-04-01T05:32:58.378Z,101896.36
2019-04-01T05:34:03.355Z,101898.30
2019-04-01T05:35:09.559Z,101897.67
2019-04-01T05:36:16.016Z,101903.52
2019-04-01T05:37:20.993Z,101898.75
2019-04-01T05:38:25.922Z,101901.30
2019-04-01T05:39:30.638Z,101901.97
2019-04-01T05:40:36.606Z,101902.00
2019-04-01T05:41:41.693Z,101902.42
2019-04-01T05:42:46.847Z,101905.08
2019-04-01T05:43:51.893Z,101904.95
2019-04-01T05:44:57.055Z,101906.17
2019-04-01T05:46:01.993Z,101904.22
2019-04-01T05:47:06.687Z,101903.05
2019-04-01T05:48:12.345Z,101902.27
2019-04-01T05:49:17.319Z,101906.99
2019-04-01T05:50:22.553Z,101899.42
2019-04-01T05:51:27.280Z,101899.02
2019-04-01T05:52:32.813Z,101902.64
2019-04-01T05:53:37.314Z,101903.34
2019-04-01T05:54:42.793Z,101911.25
2019-04-01T05:55:49.333Z,101909.34
2019-04-01T05:56:54.321Z,101906.70
2019-04-01T05:57:59.276Z,101902.78
2019-04-01T05:59:03.937Z,101907.20
2019-04-01T06:00:10.015Z,101906.79
2019-04-01T06:01:18.113Z,101905.97
2019-04-01T06:02:23.131Z,101910.56
2019-04-01T06:03:28.067Z,101906.20
2019-04-01T06:04:33.325Z,101909.25
2019-04-01T06:05:38.627Z,101911.30
2019-04-01T06:06:43.589Z,101913.12
2019-04-01T06:07:48.580Z,101910.11
2019-04-01T06:08:53.601Z,101907.98
2019-04-01T06:09:58.847Z,101909.88
2019-04-01T06:11:03.626Z,101911.30
2019-04-01T06:12:08.565Z,101913.61
2019-04-01T06:13:13.787Z,101908.88
2019-04-01T06:14:18.467Z,101910.31
2019-04-01T06:15:23.150Z,101909.14
2019-04-01T06:16:27.803Z,101912.63
2019-04-01T06:17:32.869Z,101908.73
2019-04-01T06:18:38.674Z,101911.75
2019-04-01T06:19:43.922Z,101916.59
2019-04-01T06:20:48.891Z,101911.52
2019-04-01T06:21:53.590Z,101905.88
2019-04-01T06:22:58.307Z,101911.86
2019-04-01T06:24:03.135Z,101911.34
2019-04-01T06:25:07.933Z,101910.91
2019-04-01T06:26:12.411Z,101906.45
2019-04-01T06:27:17.918Z,101907.64
2019-04-01T06:28:23.272Z,101910.89
2019-04-01T06:29:28.359Z,101906.99
2019-04-01T06:30:33.059Z,101908.16
2019-04-01T06:31:38.277Z,101905.69
2019-04-01T06:32:43.607Z,101906.62
2019-04-01T06:33:48.834Z,101907.48
2019-04-01T06:34:54.067Z,101907.50
2019-04-01T06:35:59.126Z,101900.48
2019-04-01T06:37:03.785Z,101905.41
2019-04-01T06:38:08.987Z,101899.45
2019-04-01T06:39:13.919Z,101901.27
2019-04-01T06:40:18.667Z,101910.34
2019-04-01T06:41:23.340Z,101898.44
2019-04-01T06:42:28.623Z,101897.58
2019-04-01T06:43:33.875Z,101896.93
2019-04-01T06:44:38.849Z,101903.58
2019-04-01T06:45:43.878Z,101897.30
2019-04-01T06:46:48.583Z,101900.71
2019-04-01T06:47:53.993Z,101895.05
2019-04-01T06:48:59.633Z,101897.46
2019-04-01T06:50:04.933Z,101896.08
2019-04-01T06:51:09.659Z,101905.14
2019-04-01T06:52:14.630Z,101903.33
2019-04-01T06:53:19.399Z,101902.05
2019-04-01T06:54:24.249Z,101904.84
2019-04-01T06:55:29.192Z,101900.81
2019-04-01T06:56:33.932Z,101898.64
2019-04-01T06:57:38.887Z,101900.38
2019-04-01T06:58:43.624Z,101906.27
2019-04-01T06:59:48.577Z,101898.30
2019-04-01T07:00:53.840Z,101905.84
2019-04-01T07:01:58.794Z,101901.88
2019-04-01T07:03:04.031Z,101903.44
2019-04-01T07:04:09.520Z,101905.05
2019-04-01T07:05:14.460Z,101908.90
2019-04-01T07:06:19.639Z,101900.44
2019-04-01T07:07:24.590Z,101902.17
2019-04-01T07:08:29.536Z,101906.59
2019-04-01T07:09:34.797Z,101909.05
2019-04-01T07:10:39.778Z,101902.09
2019-04-01T07:11:44.898Z,101895.34
2019-04-01T07:12:50.337Z,101902.38
2019-04-01T07:13:55.372Z,101897.97
2019-04-01T07:15:00.590Z,101896.59
2019-04-01T07:16:15.213Z,101899.45
2019-04-01T07:17:12.480Z,101898.09
2019-04-01T07:18:17.204Z,101893.41
2019-04-01T07:19:24.471Z,101899.45
2019-04-01T07:20:29.466Z,101894.17
2019-04-01T07:21:34.941Z,101893.32
2019-04-01T07:22:40.064Z,101890.80
2019-04-01T07:23:44.794Z,101888.41
2019-04-01T07:24:49.797Z,101890.44
2019-04-01T07:25:55.140Z,101891.03
2019-04-01T07:27:00.120Z,101895.20
2019-04-01T07:28:04.899Z,101892.30
2019-04-01T07:29:09.739Z,101896.70
2019-04-01T07:30:14.720Z,101893.77
2019-04-01T07:31:20.020Z,101894.66
2019-04-01T07:32:25.364Z,101893.73
2019-04-01T07:33:30.037Z,101893.34
2019-04-01T07:34:34.818Z,101894.16
2019-04-01T07:35:39.485Z,101890.67
2019-04-01T07:36:45.097Z,101887.97
2019-04-01T07:37:50.058Z,101893.02
2019-04-01T07:38:55.121Z,101894.60
2019-04-01T07:40:00.405Z,101895.37
2019-04-01T07:41:05.410Z,101885.40
2019-04-01T07:42:10.660Z,101890.14
2019-04-01T07:43:15.453Z,101884.13
2019-04-01T07:44:20.141Z,101882.02
2019-04-01T07:45:25.158Z,101885.88
2019-04-01T07:46:30.101Z,101886.14
2019-04-01T07:47:34.763Z,101885.86
2019-04-01T07:48:39.765Z,101888.30
2019-04-01T07:49:44.811Z,101881.37
2019-04-01T07:50:49.749Z,101881.37
2019-04-01T07:51:54.972Z,101891.35
2019-04-01T07:52:59.631Z,101889.89
2019-04-01T07:54:04.312Z,101882.31
2019-04-01T07:55:09.393Z,101881.40
2019-04-01T07:56:14.050Z,101883.49
2019-04-01T07:57:19.490Z,101879.08
2019-04-01T07:58:24.424Z,101877.16
2019-04-01T07:59:29.601Z,101877.75
2019-04-01T08:00:34.956Z,101878.72
2019-04-01T08:01:39.955Z,101877.98
2019-04-01T08:02:44.639Z,101872.55
2019-04-01T08:03:49.719Z,101871.90
2019-04-01T08:04:54.655Z,101870.06
2019-04-01T08:05:59.322Z,101873.20
2019-04-01T08:07:04.583Z,101869.91
2019-04-01T08:08:09.088Z,101866.25
2019-04-01T08:09:14.349Z,101865.58
2019-04-01T08:10:19.073Z,101867.11
2019-04-01T08:11:24.489Z,101857.73
2019-04-01T08:12:29.143Z,101863.38
2019-04-01T08:13:34.037Z,101862.36
2019-04-01T08:14:42.161Z,101861.03
2019-04-01T08:15:47.021Z,101855.24
2019-04-01T08:16:51.801Z,101855.39
2019-04-01T08:17:56.472Z,101843.19
2019-04-01T08:19:01.524Z,101848.36
2019-04-01T08:20:06.513Z,101849.84
2019-04-01T08:21:11.483Z,101848.47
2019-04-01T08:22:16.197Z,101849.73
2019-04-01T08:23:21.492Z,101839.28
2019-04-01T08:24:26.764Z,101849.00
2019-04-01T08:25:32.091Z,101862.52
2019-04-01T08:26:36.863Z,101866.31
2019-04-01T08:27:42.560Z,101861.66
2019-04-01T08:28:47.507Z,101865.91
2019-04-01T08:29:53.041Z,101859.22
2019-04-01T08:30:58.299Z,101858.52
2019-04-01T08:32:03.708Z,101859.83
2019-04-01T08:33:08.909Z,101859.25
2019-04-01T08:34:13.999Z,101852.03
2019-04-01T08:35:18.997Z,101856.09
2019-04-01T08:36:25.163Z,101856.09
2019-04-01T08:37:30.727Z,101852.49
2019-04-01T08:38:36.255Z,101843.84
2019-04-01T08:39:44.033Z,101833.20
2019-04-01T08:40:49.118Z,101812.96
2019-04-01T08:41:55.020Z,101751.87
2019-04-01T08:43:00.882Z,101741.45
2019-04-01T08:44:06.198Z,101734.11
2019-04-01T08:45:11.729Z,101724.99
2019-04-01T08:46:16.601Z,101720.09
2019-04-01T08:47:21.483Z,101716.30
2019-04-01T08:48:26.839Z,101708.61
2019-04-01T08:49:31.918Z,101700.65
2019-04-01T08:50:37.312Z,101692.61
2019-04-01T08:51:43.058Z,101684.55
2019-04-01T08:52:48.310Z,101675.23
2019-04-01T08:53:53.758Z,101671.76
2019-04-01T08:55:04.531Z,101667.63
2019-04-01T08:56:09.263Z,101668.09
2019-04-01T08:57:15.164Z,101664.22
2019-04-01T08:58:20.373Z,101657.28
2019-04-01T08:59:25.779Z,101666.89
2019-04-01T09:00:31.921Z,101660.28
2019-04-01T09:01:36.763Z,101654.74
2019-04-01T09:02:42.108Z,101653.56
2019-04-01T09:03:46.837Z,101654.31
2019-04-01T09:04:52.319Z,101647.77
2019-04-01T09:05:57.074Z,101647.52
2019-04-01T09:07:02.058Z,101644.00
2019-04-01T09:08:06.774Z,101642.58
2019-04-01T09:09:11.795Z,101640.99
2019-04-01T09:10:16.477Z,101638.53
2019-04-01T09:11:22.244Z,101640.81
2019-04-01T09:12:27.778Z,101639.73
2019-04-01T09:13:32.580Z,101647.14
2019-04-01T09:14:38.360Z,101642.42
2019-04-01T09:15:44.308Z,101647.81
2019-04-01T09:16:51.753Z,101639.45
2019-04-01T09:17:56.593Z,101661.23
2019-04-01T09:19:02.531Z,101703.89
2019-04-01T09:20:07.311Z,101740.88
2019-04-01T09:21:12.667Z,101777.02
2019-04-01T09:22:17.672Z,101811.59
2019-04-01T09:23:23.038Z,101823.81
2019-04-01T09:24:28.046Z,101816.39
2019-04-01T09:25:32.688Z,101811.98
2019-04-01T09:26:37.253Z,101816.57
2019-04-01T09:27:42.699Z,101811.20
2019-04-01T09:28:47.918Z,101809.67
2019-04-01T09:29:52.626Z,101812.44
2019-04-01T09:30:57.066Z,101808.42
2019-04-01T09:32:02.349Z,101810.26
2019-04-01T09:33:07.025Z,101799.27
2019-04-01T09:34:12.026Z,101781.84
2019-04-01T09:35:16.803Z,101750.02
2019-04-01T09:36:22.100Z,101712.44
2019-04-01T09:37:27.345Z,101688.02
2019-04-01T09:38:32.319Z,101662.92
2019-04-01T09:39:37.346Z,101663.60
2019-04-01T09:40:42.747Z,101661.06
2019-04-01T09:41:47.667Z,101664.00
2019-04-01T09:42:59.762Z,101668.31
2019-04-01T09:44:04.556Z,101670.69
2019-04-01T09:45:09.756Z,101673.17
2019-04-01T09:46:14.777Z,101682.17
2019-04-01T09:47:20.013Z,101681.42
2019-04-01T09:48:25.265Z,101685.20
2019-04-01T09:49:30.557Z,101686.60
2019-04-01T09:50:35.824Z,101694.78
2019-04-01T09:51:48.508Z,101697.00
2019-04-01T09:52:47.896Z,101704.97
2019-04-01T09:53:53.112Z,101708.91
2019-04-01T09:54:58.103Z,101710.23
2019-04-01T09:56:03.268Z,101711.92
2019-04-01T09:57:17.238Z,101720.12
2019-04-01T09:58:15.202Z,101721.89
2019-04-01T09:59:20.366Z,101759.20
2019-04-01T10:00:25.431Z,101781.66
2019-04-01T10:01:30.800Z,101779.15
2019-04-01T10:02:35.776Z,101780.71
2019-04-01T10:03:41.016Z,101768.03
2019-04-01T10:04:45.696Z,101771.51
2019-04-01T10:05:50.411Z,101771.91
2019-04-01T10:06:55.733Z,101769.23
2019-04-01T10:08:00.813Z,101768.97
2019-04-01T10:09:08.794Z,101765.09
2019-04-01T10:10:13.350Z,101768.62
2019-04-01T10:11:18.289Z,101760.25
2019-04-01T10:12:23.035Z,101760.72
2019-04-01T10:13:27.971Z,101757.69
2019-04-01T10:14:33.237Z,101757.11
2019-04-01T10:15:38.017Z,101752.83
2019-04-01T10:16:46.303Z,101754.47
2019-04-01T10:17:51.380Z,101748.83
2019-04-01T10:18:56.078Z,101743.20
2019-04-01T10:20:01.650Z,101744.72
2019-04-01T10:21:06.332Z,101743.53
2019-04-01T10:22:11.066Z,101743.41
2019-04-01T10:23:16.190Z,101739.23
2019-04-01T10:24:21.200Z,101734.96
2019-04-01T10:25:26.446Z,101736.09
2019-04-01T10:26:31.406Z,101734.05
2019-04-01T10:27:36.110Z,101728.11
2019-04-01T10:28:40.949Z,101731.87
2019-04-01T10:29:45.928Z,101734.55
2019-04-01T10:30:50.957Z,101731.59
2019-04-01T10:31:55.885Z,101723.80
2019-04-01T10:33:02.601Z,101727.24
2019-04-01T10:34:10.242Z,101723.67
2019-04-01T10:35:16.145Z,101724.64
2019-04-01T10:36:22.250Z,101720.13
2019-04-01T10:37:31.153Z,101715.56
2019-04-01T10:38:46.515Z,101714.94
2019-04-01T10:39:54.460Z,101708.40
2019-04-01T10:41:09.444Z,101716.86
2019-04-01T10:42:15.019Z,101713.56
2019-04-01T10:43:20.285Z,101711.86
2019-04-01T10:44:26.129Z,101713.94
2019-04-01T10:45:31.250Z,101712.45
2019-04-01T10:46:36.275Z,101708.48
2019-04-01T10:47:41.322Z,101710.07
2019-04-01T10:48:46.169Z,101703.02
2019-04-01T10:49:51.791Z,101698.58
2019-04-01T10:50:57.169Z,101698.41
2019-04-01T10:52:02.551Z,101703.09
2019-04-01T10:53:08.008Z,101695.09
2019-04-01T10:54:13.356Z,101698.86
2019-04-01T10:55:18.313Z,101695.02
2019-04-01T10:56:22.975Z,101689.98
2019-04-01T10:57:28.636Z,101689.77
2019-04-01T10:58:45.356Z,101693.97
2019-04-01T10:59:53.986Z,101694.52
2019-04-01T11:01:09.602Z,101691.28
2019-04-01T11:02:18.276Z,101691.55
2019-04-01T11:03:21.282Z,101693.03
2019-04-01T11:04:26.547Z,101683.00
2019-04-01T11:05:31.477Z,101673.45
2019-04-01T11:06:36.163Z,101684.59
2019-04-01T11:07:41.238Z,101676.84
2019-04-01T11:08:46.789Z,101672.33
2019-04-01T11:09:52.452Z,101672.84
2019-04-01T11:10:57.187Z,101667.07
2019-04-01T11:12:02.153Z,101673.56
2019-04-01T11:13:07.165Z,101671.04
2019-04-01T11:14:12.374Z,101666.91
2019-04-01T11:15:19.989Z,101665.47
2019-04-01T11:16:25.344Z,101665.03
2019-04-01T11:17:30.453Z,101669.97
2019-04-01T11:18:52.638Z,101658.09
2019-04-01T11:20:05.659Z,101666.38
2019-04-01T11:21:10.416Z,101665.30
2019-04-01T11:22:15.364Z,101663.22
2019-04-01T11:23:20.299Z,101657.06
2019-04-01T11:24:25.943Z,101651.87
2019-04-01T11:25:30.921Z,101656.42
2019-04-01T11:26:36.612Z,101650.80
2019-04-01T11:27:42.017Z,101648.36
2019-04-01T11:28:47.069Z,101655.14
2019-04-01T11:29:52.074Z,101647.51
2019-04-01T11:30:57.631Z,101651.04
2019-04-01T11:32:03.411Z,101650.54
2019-04-01T11:33:08.584Z,101646.47
2019-04-01T11:34:13.943Z,101643.55
2019-04-01T11:35:18.783Z,101646.97
2019-04-01T11:36:24.019Z,101643.05
2019-04-01T11:37:28.729Z,101644.78
2019-04-01T11:38:34.294Z,101641.28
2019-04-01T11:39:39.600Z,101645.56
2019-04-01T11:40:44.648Z,101641.81
2019-04-01T11:41:49.777Z,101642.61
2019-04-01T11:42:55.018Z,101639.97
2019-04-01T11:44:00.039Z,101632.94
2019-04-01T11:45:05.917Z,101630.78
2019-04-01T11:46:12.691Z,101630.27
2019-04-01T11:47:18.045Z,101647.00
2019-04-01T11:48:23.615Z,101657.21
2019-04-01T11:49:28.871Z,101658.66
2019-04-01T11:50:33.462Z,101664.45
2019-04-01T11:51:39.948Z,101656.04
2019-04-01T11:52:45.112Z,101659.08
2019-04-01T11:53:50.145Z,101656.89
2019-04-01T11:54:55.415Z,101656.33
2019-04-01T11:56:01.557Z,101652.23
2019-04-01T11:57:06.516Z,101654.83
2019-04-01T11:58:12.399Z,101650.95
2019-04-01T11:59:17.167Z,101648.48
2019-04-01T12:00:21.823Z,101642.89
2019-04-01T12:01:26.516Z,101644.68
2019-04-01T12:02:31.200Z,101639.75
2019-04-01T12:03:36.133Z,101639.14
2019-04-01T12:04:42.387Z,101635.75
2019-04-01T12:05:47.396Z,101630.73
2019-04-01T12:06:52.996Z,101636.05
2019-04-01T12:07:58.250Z,101626.27
2019-04-01T12:09:05.266Z,101628.23
2019-04-01T12:10:10.580Z,101621.81
2019-04-01T12:11:15.561Z,101619.43
2019-04-01T12:12:24.126Z,101617.69
2019-04-01T12:13:28.914Z,101623.17
2019-04-01T12:14:33.466Z,101616.80
2019-04-01T12:15:39.157Z,101621.19
2019-04-01T12:16:44.765Z,101613.06
2019-04-01T12:17:49.836Z,101608.23
2019-04-01T12:18:54.842Z,101605.58
2019-04-01T12:20:09.908Z,101605.74
2019-04-01T12:21:41.518Z,101602.53
2019-04-01T12:22:54.172Z,101598.52
2019-04-01T12:38:26.777Z,101556.90
2019-04-01T12:57:03.768Z,101519.81
2019-04-01T12:58:08.941Z,101514.52